Time;durP1;ratioP1;P1;durP2;ratioP2;P2;SDS_P1;SDS_P2;PMS_P1;PMS_P2;Temp;Humidity;BMP_temperature;BMP_pressure;BME280_temperature;BME280_humidity;BME280_pressure;Samples;Min_cycle;Max_cycle;Signal;HPM_P1;HPM_P2
2021/05/27 00:00:32;;;;;;;7.15;3.65;;;;;;;7.01;82.66;99308.09;5053238;28;20112;-58
2021/05/27 00:02:57;;;;;;;9.20;3.90;;;;;;;7.05;82.67;99307.47;5053953;28;20072;-59
2021/05/27 00:05:23;;;;;;;5.72;4.15;;;;;;;7.02;82.12;99313.22;5035465;28;20123;-61
2021/05/27 00:07:49;;;;;;;8.15;4.18;;;;;;;7.11;82.01;99311.94;5053785;28;20071;-59
2021/05/27 00:10:16;;;;;;;6.43;3.75;;;;;;;7.12;81.85;99302.91;5053132;28;20116;-59
2021/05/27 00:12:42;;;;;;;4.50;3.22;;;;;;;7.05;82.07;99307.47;5053707;28;20426;-60
2021/05/27 00:15:07;;;;;;;6.68;3.50;;;;;;;7.06;82.23;99311.78;5052921;28;20025;-60
2021/05/27 00:17:33;;;;;;;8.55;3.85;;;;;;;7.08;82.20;99300.88;5035610;28;20044;-61
2021/05/27 00:19:58;;;;;;;6.47;4.03;;;;;;;7.06;82.60;99308.28;5053553;28;20356;-60
2021/05/27 00:22:24;;;;;;;5.68;4.03;;;;;;;7.03;82.66;99304.19;5052962;28;20486;-60
2021/05/27 00:24:49;;;;;;;7.00;4.15;;;;;;;7.05;82.65;99310.13;5052677;28;20036;-60
2021/05/27 00:27:15;;;;;;;5.65;3.65;;;;;;;7.03;82.72;99304.19;5052886;28;20036;-60
2021/05/27 00:29:40;;;;;;;6.07;4.07;;;;;;;7.02;82.86;99307.09;5053245;28;20033;-61
2021/05/27 00:32:06;;;;;;;5.95;4.63;;;;;;;7.05;82.60;99288.00;5052806;28;20045;-60
2021/05/27 00:34:31;;;;;;;5.05;3.60;;;;;;;7.06;82.57;99285.13;5053513;28;20056;-58
2021/05/27 00:36:57;;;;;;;6.43;3.30;;;;;;;7.09;82.84;99286.53;5052779;28;20037;-58
2021/05/27 00:39:22;;;;;;;6.45;4.13;;;;;;;7.12;82.69;99296.75;5053124;28;20025;-60
2021/05/27 00:41:48;;;;;;;5.65;3.70;;;;;;;7.15;82.31;99290.19;5052318;28;20422;-61
2021/05/27 00:44:23;;;;;;;7.13;3.80;;;;;;;7.07;82.82;99299.25;5052908;28;20028;-61
2021/05/27 00:46:49;;;;;;;5.88;3.65;;;;;;;7.03;82.88;99303.38;5051876;28;20398;-61
2021/05/27 00:49:15;;;;;;;6.55;3.17;;;;;;;7.07;82.79;99305.41;5053047;28;20039;-61
2021/05/27 00:51:40;;;;;;;4.45;3.65;;;;;;;7.08;82.55;99299.03;5052616;28;20037;-61
2021/05/27 00:54:06;;;;;;;6.57;3.90;;;;;;;7.03;82.46;99298.06;5052889;28;20066;-58
2021/05/27 00:56:31;;;;;;;5.07;3.80;;;;;;;6.99;83.07;99307.50;5052429;28;20348;-61
2021/05/27 00:58:57;;;;;;;7.47;3.80;;;;;;;6.97;83.19;99304.28;5052778;28;20493;-61
2021/05/27 01:01:23;;;;;;;7.97;4.00;;;;;;;6.95;83.54;99307.13;5052522;28;20033;-59
2021/05/27 01:03:49;;;;;;;8.45;4.28;;;;;;;7.00;83.19;99309.16;5052634;28;20471;-59
2021/05/27 01:06:14;;;;;;;7.32;3.90;;;;;;;7.01;83.35;99292.94;5052172;28;20044;-59
2021/05/27 01:08:40;;;;;;;4.90;3.40;;;;;;;7.04;82.98;99311.19;5052670;28;20025;-59
2021/05/27 01:11:05;;;;;;;6.00;3.58;;;;;;;7.16;82.55;99302.44;5052367;28;20044;-59
2021/05/27 01:13:33;;;;;;;7.90;4.03;;;;;;;7.17;82.59;99310.25;5052665;28;20410;-59
2021/05/27 01:15:59;;;;;;;5.25;3.80;;;;;;;7.18;82.24;99306.53;5052048;28;20049;-60
2021/05/27 01:18:26;;;;;;;7.80;3.95;;;;;;;7.21;82.52;99314.09;5031388;28;20051;-59
2021/05/27 01:20:54;;;;;;;6.60;3.63;;;;;;;7.24;82.50;99311.00;5032300;28;20124;-59
2021/05/27 01:23:20;;;;;;;8.82;3.75;;;;;;;7.20;82.91;99309.81;5032641;28;20025;-58
2021/05/27 01:25:52;;;;;;;11.40;4.00;;;;;;;7.23;82.88;99309.34;5032245;28;20057;-59
2021/05/27 01:28:18;;;;;;;6.55;3.88;;;;;;;7.19;82.86;99307.34;5032657;28;20420;-59
2021/05/27 01:30:44;;;;;;;6.80;3.97;;;;;;;7.16;82.80;99313.13;5032348;28;20107;-60
2021/05/27 01:33:10;;;;;;;4.03;2.88;;;;;;;7.23;82.31;99319.22;5032672;28;20476;-59
2021/05/27 01:35:36;;;;;;;5.35;2.47;;;;;;;7.23;82.66;99329.88;5032365;28;20037;-59
2021/05/27 01:38:16;;;;;;;5.13;3.58;;;;;;;7.27;82.46;99315.91;5035401;28;20490;-59
2021/05/27 01:40:42;;;;;;;7.45;3.10;;;;;;;7.27;82.21;99309.75;5034841;28;20030;-59
2021/05/27 01:43:07;;;;;;;5.38;3.45;;;;;;;7.28;82.26;99316.72;5036656;28;20029;-59
2021/05/27 01:45:33;;;;;;;10.00;3.65;;;;;;;7.31;82.21;99316.25;5036196;28;20053;-60
2021/05/27 01:47:59;;;;;;;4.68;2.63;;;;;;;7.26;82.30;99319.59;5035146;28;20037;-59
2021/05/27 01:50:24;;;;;;;4.57;2.88;;;;;;;7.21;82.37;99322.09;5035991;28;20045;-59
2021/05/27 01:52:50;;;;;;;5.82;3.35;;;;;;;7.20;82.43;99325.00;5036377;28;20076;-59
2021/05/27 01:55:15;;;;;;;5.63;3.38;;;;;;;7.18;82.75;99319.06;5035803;28;20505;-59
2021/05/27 01:57:41;;;;;;;6.32;3.33;;;;;;;7.22;82.35;99317.59;5034961;28;20026;-59
2021/05/27 02:00:07;;;;;;;5.88;3.22;;;;;;;7.19;82.61;99313.50;5035778;28;20037;-59
2021/05/27 02:02:32;;;;;;;5.15;3.35;;;;;;;7.27;82.39;99312.41;5034960;28;20025;-59
2021/05/27 02:04:58;;;;;;;6.68;3.38;;;;;;;7.16;82.75;99316.59;5034834;28;20080;-59
2021/05/27 02:07:23;;;;;;;5.68;2.83;;;;;;;7.23;82.66;99316.53;5035644;28;20034;-59
2021/05/27 02:09:48;;;;;;;7.93;3.28;;;;;;;7.23;82.46;99316.53;5035846;28;20121;-59
2021/05/27 02:12:14;;;;;;;5.55;3.58;;;;;;;7.15;82.71;99316.84;5035634;28;20033;-60
2021/05/27 02:14:40;;;;;;;5.70;3.53;;;;;;;7.21;82.52;99321.28;5036105;28;20017;-59
2021/05/27 02:17:05;;;;;;;6.55;3.63;;;;;;;7.30;81.92;99320.78;5043255;28;20053;-59
2021/05/27 02:19:31;;;;;;;5.25;3.55;;;;;;;7.32;82.17;99324.06;5055726;28;20387;-60
2021/05/27 02:21:56;;;;;;;6.43;3.80;;;;;;;7.26;82.21;99318.78;5037426;28;20037;-59
2021/05/27 02:24:22;;;;;;;7.18;3.60;;;;;;;7.28;82.15;99320.19;5055529;28;20029;-59
2021/05/27 02:26:47;;;;;;;4.97;3.15;;;;;;;7.25;82.22;99330.47;5055216;28;20033;-59
2021/05/27 02:29:13;;;;;;;5.78;3.03;;;;;;;7.17;82.42;99325.44;5037818;28;20033;-59
2021/05/27 02:31:39;;;;;;;6.05;4.13;;;;;;;7.21;82.62;99323.94;5055162;28;20037;-59
2021/05/27 02:34:04;;;;;;;7.88;4.30;;;;;;;7.27;82.43;99328.41;5055605;28;20494;-60
2021/05/27 02:36:29;;;;;;;8.57;3.05;;;;;;;7.29;82.24;99324.50;5054939;28;20560;-59
2021/05/27 02:38:55;;;;;;;6.03;3.47;;;;;;;7.19;82.81;99328.66;5055270;28;20028;-59
2021/05/27 02:41:21;;;;;;;6.30;3.50;;;;;;;7.22;82.52;99322.94;5054467;28;20490;-59
2021/05/27 02:43:46;;;;;;;5.45;3.65;;;;;;;7.13;83.01;99335.69;5055470;28;20044;-59
2021/05/27 02:46:11;;;;;;;5.88;3.20;;;;;;;7.16;83.13;99334.44;5055016;28;20506;-59
2021/05/27 02:48:37;;;;;;;8.48;3.60;;;;;;;7.18;83.04;99327.84;5054652;28;20391;-59
2021/05/27 02:51:03;;;;;;;7.50;3.83;;;;;;;7.15;82.87;99325.63;5054837;28;20486;-59
2021/05/27 02:53:28;;;;;;;6.05;3.92;;;;;;;7.22;82.79;99325.59;5037290;28;20033;-59
2021/05/27 02:55:53;;;;;;;8.80;3.40;;;;;;;7.27;82.69;99321.22;5054499;28;20116;-59
2021/05/27 02:58:19;;;;;;;4.13;3.05;;;;;;;7.21;83.03;99323.94;5055356;28;20036;-59
2021/05/27 03:00:45;;;;;;;8.15;3.42;;;;;;;7.11;83.42;99322.59;5054422;28;20505;-59
2021/05/27 03:03:10;;;;;;;7.13;3.22;;;;;;;7.12;83.75;99329.56;5055001;28;20029;-59
2021/05/27 03:05:35;;;;;;;6.10;3.17;;;;;;;7.17;83.42;99339.56;5054728;28;20087;-59
2021/05/27 03:08:01;;;;;;;7.63;3.70;;;;;;;7.12;83.54;99326.06;5054752;28;20024;-59
2021/05/27 03:10:26;;;;;;;7.85;3.92;;;;;;;7.17;83.48;99330.75;5054265;28;20110;-59
2021/05/27 03:12:52;;;;;;;5.32;3.83;;;;;;;7.19;83.53;99336.66;5054753;28;20083;-59
2021/05/27 03:15:17;;;;;;;7.43;3.38;;;;;;;7.18;83.95;99337.72;5054208;28;20032;-59
2021/05/27 03:17:42;;;;;;;6.35;3.50;;;;;;;7.16;84.04;99337.09;5019977;28;20053;-59
2021/05/27 03:20:09;;;;;;;5.07;3.10;;;;;;;7.13;83.94;99336.50;5054101;28;20032;-59
2021/05/27 03:22:34;;;;;;;8.35;3.38;;;;;;;7.11;84.02;99338.59;5054435;28;20029;-59
2021/05/27 03:24:59;;;;;;;8.13;3.55;;;;;;;7.04;84.51;99339.66;5054701;28;20059;-59
2021/05/27 03:27:25;;;;;;;4.13;2.95;;;;;;;6.97;85.00;99336.25;5053955;28;20380;-59
2021/05/27 03:29:50;;;;;;;7.03;3.60;;;;;;;6.97;84.94;99342.38;5054429;28;20021;-59
2021/05/27 03:32:16;;;;;;;5.63;3.67;;;;;;;6.96;84.95;99339.91;5053803;28;20132;-59
2021/05/27 03:34:41;;;;;;;10.00;3.88;;;;;;;7.02;85.11;99345.22;5054172;28;20079;-59
2021/05/27 03:37:07;;;;;;;5.93;3.35;;;;;;;7.04;85.25;99342.31;5053729;28;20040;-59
2021/05/27 03:39:32;;;;;;;6.65;3.75;;;;;;;7.05;84.70;99350.09;5054209;28;20048;-59
2021/05/27 03:41:57;;;;;;;4.00;2.75;;;;;;;7.08;84.41;99349.66;5053888;28;20033;-59
2021/05/27 03:44:23;;;;;;;7.60;3.40;;;;;;;7.14;84.13;99350.66;5054443;28;20360;-59
2021/05/27 03:46:48;;;;;;;6.90;3.40;;;;;;;7.17;84.43;99362.75;5053558;28;20071;-59
2021/05/27 03:49:14;;;;;;;5.85;3.67;;;;;;;7.22;84.58;99354.91;5054169;28;20044;-59
2021/05/27 03:51:39;;;;;;;8.55;3.42;;;;;;;7.16;84.33;99355.78;5053471;28;20037;-59
2021/05/27 03:54:05;;;;;;;5.95;3.10;;;;;;;7.22;83.95;99352.25;5036135;28;20036;-59
2021/05/27 03:56:30;;;;;;;4.47;3.30;;;;;;;7.16;84.47;99361.09;5053425;28;20037;-59
2021/05/27 04:01:40;;;;;;;5.65;3.50;;;;;;;7.26;84.01;99367.59;5053312;28;20108;-59
2021/05/27 04:07:09;;;;;;;7.07;3.67;;;;;;;7.34;83.53;99366.50;5053489;28;20102;-59
2021/05/27 04:09:34;;;;;;;8.07;3.35;;;;;;;7.36;83.51;99364.41;5053845;28;20028;-60
2021/05/27 04:15:19;;;;;;;4.93;2.95;;;;;;;7.31;83.91;99353.59;5053793;28;20032;-59
2021/05/27 04:17:29;;;;;;;5.05;3.10;;;;;;;7.36;83.83;99356.41;5038343;28;20073;-59
2021/05/27 04:19:55;;;;;;;4.80;3.45;;;;;;;7.40;83.69;99365.63;5035815;28;20063;-60
2021/05/27 04:22:20;;;;;;;7.65;3.85;;;;;;;7.42;83.51;99360.88;5052970;28;20127;-59
2021/05/27 04:24:45;;;;;;;7.85;3.50;;;;;;;7.42;83.79;99354.75;5035715;28;20063;-59
2021/05/27 04:27:11;;;;;;;6.10;3.97;;;;;;;7.42;83.73;99354.75;5052859;28;20071;-59
2021/05/27 04:29:36;;;;;;;11.35;3.65;;;;;;;7.38;83.59;99359.69;5053566;28;20028;-59
2021/05/27 04:32:02;;;;;;;6.35;2.88;;;;;;;7.37;83.94;99366.06;5052861;28;20036;-59
2021/05/27 04:34:29;;;;;;;9.25;3.90;;;;;;;7.28;84.26;99359.38;5053295;28;20120;-59
2021/05/27 04:36:54;;;;;;;7.25;3.90;;;;;;;7.31;84.22;99358.91;5052847;28;20041;-59
2021/05/27 04:39:20;;;;;;;6.50;3.60;;;;;;;7.30;84.25;99374.09;5053447;28;20083;-59
2021/05/27 04:41:45;;;;;;;6.88;3.97;;;;;;;7.34;84.15;99372.66;5053002;28;20033;-59
2021/05/27 04:44:11;;;;;;;9.07;3.33;;;;;;;7.39;83.79;99381.81;5053595;28;20090;-59
2021/05/27 04:46:36;;;;;;;6.88;3.53;;;;;;;7.37;83.69;99379.41;5053331;28;20117;-59
2021/05/27 04:49:02;;;;;;;5.43;3.33;;;;;;;7.39;84.07;99389.81;5053031;28;20437;-60
2021/05/27 04:51:27;;;;;;;7.05;4.07;;;;;;;7.34;84.45;99385.97;5052857;28;20037;-60
2021/05/27 04:53:53;;;;;;;4.70;2.55;;;;;;;7.38;84.07;99383.69;5035538;28;20025;-60
2021/05/27 04:56:18;;;;;;;5.78;4.00;;;;;;;7.36;84.53;99396.41;5052782;28;20036;-59
2021/05/27 04:58:44;;;;;;;8.23;3.55;;;;;;;7.37;84.38;99384.72;5053638;28;20029;-59
2021/05/27 05:01:10;;;;;;;6.68;3.83;;;;;;;7.46;84.11;99388.78;5053029;28;20041;-59
2021/05/27 05:03:35;;;;;;;7.80;3.78;;;;;;;7.43;84.43;99396.38;5053376;28;20056;-59
2021/05/27 05:06:02;;;;;;;6.35;3.40;;;;;;;7.51;84.24;99396.94;5052594;28;20037;-60
2021/05/27 05:08:27;;;;;;;5.70;3.80;;;;;;;7.42;84.14;99389.41;5053036;28;20168;-59
2021/05/27 05:10:53;;;;;;;11.77;3.70;;;;;;;7.43;84.09;99394.50;5052179;28;20041;-59
2021/05/27 05:13:19;;;;;;;5.38;3.80;;;;;;;7.45;83.74;99403.13;5053037;28;20325;-59
2021/05/27 05:15:45;;;;;;;6.07;3.50;;;;;;;7.46;83.69;99390.59;5052448;28;20124;-59
2021/05/27 05:18:12;;;;;;;6.85;3.47;;;;;;;7.44;84.25;99400.66;5052530;28;20045;-60
2021/05/27 05:20:37;;;;;;;6.85;3.22;;;;;;;7.42;84.37;99398.22;5052251;28;20471;-59
2021/05/27 05:23:03;;;;;;;4.93;3.25;;;;;;;7.38;84.45;99406.88;5052660;28;20060;-59
2021/05/27 05:25:29;;;;;;;4.90;3.55;;;;;;;7.38;84.38;99402.34;5052530;28;20033;-59
2021/05/27 05:27:55;;;;;;;8.30;3.63;;;;;;;7.38;84.71;99391.69;5052628;28;20057;-59
2021/05/27 05:30:21;;;;;;;9.05;3.50;;;;;;;7.38;84.22;99399.69;5052133;28;20502;-59
2021/05/27 05:32:47;;;;;;;11.20;4.00;;;;;;;7.41;84.50;99401.91;5052373;28;20489;-59
2021/05/27 05:35:13;;;;;;;6.82;3.80;;;;;;;7.40;84.60;99410.16;5052049;28;20128;-59
2021/05/27 05:37:39;;;;;;;6.28;3.33;;;;;;;7.40;84.74;99416.28;5052462;28;20378;-59
2021/05/27 05:40:05;;;;;;;4.93;3.17;;;;;;;7.42;85.05;99413.41;5051821;28;20052;-59
2021/05/27 05:42:30;;;;;;;6.13;3.55;;;;;;;7.42;84.75;99419.56;5052532;28;20021;-59
2021/05/27 05:44:56;;;;;;;7.85;3.30;;;;;;;7.43;84.68;99415.03;5052293;28;20025;-59
2021/05/27 05:47:21;;;;;;;7.25;3.72;;;;;;;7.54;84.55;99420.50;5052042;28;20037;-59
2021/05/27 05:49:47;;;;;;;7.95;3.97;;;;;;;7.62;84.37;99423.94;5034501;28;20025;-59
2021/05/27 05:52:13;;;;;;;9.75;4.18;;;;;;;7.62;84.09;99418.59;5052094;28;20030;-61
2021/05/27 05:54:38;;;;;;;7.22;3.90;;;;;;;7.60;84.35;99415.31;5034373;28;20025;-59
2021/05/27 05:57:04;;;;;;;5.20;3.47;;;;;;;7.71;83.91;99422.59;5052135;28;20044;-59
2021/05/27 05:59:29;;;;;;;6.22;3.50;;;;;;;7.63;84.00;99425.53;5052467;28;20021;-59
2021/05/27 06:01:55;;;;;;;7.88;3.75;;;;;;;7.59;84.27;99424.34;5034246;28;20087;-59
2021/05/27 06:04:20;;;;;;;6.90;4.00;;;;;;;7.70;83.91;99420.97;5052399;28;20033;-60
2021/05/27 06:06:46;;;;;;;8.18;4.07;;;;;;;7.65;84.09;99424.28;5051811;28;20471;-59
2021/05/27 06:09:11;;;;;;;5.90;4.07;;;;;;;7.72;83.91;99418.91;5052279;28;20033;-59
2021/05/27 06:11:37;;;;;;;5.68;3.70;;;;;;;7.62;84.39;99429.25;5052127;28;20041;-59
2021/05/27 06:14:02;;;;;;;7.80;3.85;;;;;;;7.64;84.10;99427.16;5052128;28;20024;-59
2021/05/27 06:16:28;;;;;;;8.25;3.95;;;;;;;7.59;84.40;99430.50;5051342;28;20053;-60
2021/05/27 06:18:54;;;;;;;7.70;3.65;;;;;;;7.61;84.43;99424.94;5052607;28;20083;-60
2021/05/27 06:21:19;;;;;;;4.70;3.35;;;;;;;7.64;84.16;99435.16;5052046;28;20029;-59
2021/05/27 06:23:44;;;;;;;4.97;3.50;;;;;;;7.59;84.30;99435.84;5054317;28;20494;-59
2021/05/27 06:26:10;;;;;;;5.90;3.78;;;;;;;7.70;84.22;99435.13;5055316;28;20474;-59
2021/05/27 06:28:36;;;;;;;5.03;3.22;;;;;;;7.76;83.65;99442.28;5038239;28;20626;-59
2021/05/27 06:31:02;;;;;;;5.45;3.70;;;;;;;7.75;83.75;99442.47;5037787;28;20037;-59
2021/05/27 06:33:27;;;;;;;7.57;4.30;;;;;;;7.76;83.86;99441.44;5038043;28;20391;-59
2021/05/27 06:35:52;;;;;;;7.50;4.07;;;;;;;8.07;82.90;99437.06;5055039;28;20036;-59
2021/05/27 06:38:18;;;;;;;6.55;4.68;;;;;;;8.10;82.36;99440.09;5055742;28;20029;-59
2021/05/27 06:40:43;;;;;;;6.60;4.13;;;;;;;8.10;82.68;99441.94;5037090;28;20102;-59
2021/05/27 06:43:09;;;;;;;6.20;3.50;;;;;;;8.09;82.40;99445.66;5055669;28;20025;-59
2021/05/27 06:45:34;;;;;;;8.40;3.78;;;;;;;8.16;82.47;99449.06;5037368;28;20045;-59
2021/05/27 06:48:00;;;;;;;6.68;4.10;;;;;;;8.29;82.36;99454.28;5037595;28;20375;-59
2021/05/27 06:50:40;;;;;;;8.95;4.57;;;;;;;8.31;82.26;99449.53;5054751;28;20455;-59
2021/05/27 06:53:12;;;;;;;6.90;3.95;;;;;;;8.52;82.01;99450.16;5055399;28;20414;-60
2021/05/27 06:55:38;;;;;;;7.13;4.20;;;;;;;8.43;81.43;99453.09;5055001;28;20128;-61
2021/05/27 06:58:03;;;;;;;8.18;4.15;;;;;;;8.45;81.33;99452.09;5055170;28;20032;-59
2021/05/27 07:00:29;;;;;;;7.80;4.28;;;;;;;8.38;81.90;99450.25;5054668;28;20037;-59
2021/05/27 07:02:55;;;;;;;7.15;4.20;;;;;;;8.41;81.75;99454.38;5054992;28;20463;-59
2021/05/27 07:05:21;;;;;;;6.72;4.05;;;;;;;8.46;81.64;99451.03;5054304;28;20380;-60
2021/05/27 07:07:46;;;;;;;6.03;3.95;;;;;;;8.55;81.24;99455.84;5054956;28;20033;-59
2021/05/27 07:10:13;;;;;;;9.70;4.03;;;;;;;8.55;81.86;99452.38;5054726;28;20434;-59
2021/05/27 07:12:39;;;;;;;7.82;3.88;;;;;;;8.57;81.63;99447.63;5054949;28;20120;-61
2021/05/27 07:15:05;;;;;;;7.68;4.55;;;;;;;8.49;82.25;99445.28;5036617;28;20037;-60
2021/05/27 07:17:30;;;;;;;7.18;4.20;;;;;;;8.67;81.26;99452.44;5054915;28;20045;-59
2021/05/27 07:19:56;;;;;;;11.90;4.90;;;;;;;8.59;81.24;99457.06;5054624;28;20025;-59
2021/05/27 07:22:21;;;;;;;9.27;4.40;;;;;;;8.56;81.71;99459.34;5036683;28;20033;-59
2021/05/27 07:24:47;;;;;;;10.02;4.40;;;;;;;8.83;81.02;99462.50;5054900;28;20360;-60
2021/05/27 07:27:13;;;;;;;6.45;4.30;;;;;;;9.32;79.25;99454.44;5054354;28;20044;-59
2021/05/27 07:29:39;;;;;;;10.07;5.30;;;;;;;10.01;76.02;99463.63;5036822;28;20032;-59
2021/05/27 07:32:05;;;;;;;8.70;4.78;;;;;;;10.54;73.31;99472.56;5054169;28;20041;-59
2021/05/27 07:34:31;;;;;;;8.20;4.60;;;;;;;10.98;71.46;99462.16;5054248;28;20483;-59
2021/05/27 07:36:57;;;;;;;6.15;4.20;;;;;;;11.07;71.38;99466.13;5053852;28;20048;-60
2021/05/27 07:39:22;;;;;;;9.43;4.20;;;;;;;11.23;70.15;99467.19;5054236;28;20025;-60
2021/05/27 07:41:47;;;;;;;5.55;4.03;;;;;;;11.26;70.04;99469.41;5053915;28;20059;-59
2021/05/27 07:44:13;;;;;;;7.22;3.90;;;;;;;11.48;69.29;99466.03;5054425;28;20032;-59
2021/05/27 07:46:38;;;;;;;6.03;4.10;;;;;;;11.70;69.59;99468.81;5035831;28;20033;-60
2021/05/27 07:49:04;;;;;;;7.03;4.28;;;;;;;11.91;66.75;99470.81;5054271;28;20029;-60
2021/05/27 07:51:29;;;;;;;6.57;3.90;;;;;;;12.10;67.43;99468.66;5053827;28;20483;-60
2021/05/27 07:53:55;;;;;;;8.93;3.55;;;;;;;12.04;66.71;99475.81;5054444;28;20028;-59
2021/05/27 07:56:20;;;;;;;8.38;3.88;;;;;;;12.19;66.29;99469.88;5053616;28;20506;-60
2021/05/27 07:58:46;;;;;;;5.43;3.60;;;;;;;12.36;65.59;99479.78;5035989;28;20025;-59
2021/05/27 08:01:13;;;;;;;6.50;3.60;;;;;;;12.31;65.88;99472.47;5053516;28;20037;-60
2021/05/27 08:03:39;;;;;;;6.82;3.60;;;;;;;12.08;65.62;99474.28;5053794;28;20074;-60
2021/05/27 08:06:04;;;;;;;5.03;2.83;;;;;;;12.07;63.62;99478.00;5053340;28;20033;-59
2021/05/27 08:08:30;;;;;;;5.93;3.22;;;;;;;12.13;63.21;99470.03;5053633;28;20387;-60
2021/05/27 08:10:55;;;;;;;6.25;3.00;;;;;;;12.20;64.29;99476.84;5053843;28;20029;-60
2021/05/27 08:13:21;;;;;;;6.15;3.20;;;;;;;12.18;63.30;99479.00;5053690;28;20108;-60
2021/05/27 08:15:46;;;;;;;5.78;3.55;;;;;;;12.00;64.07;99485.44;5053007;28;20402;-59
2021/05/27 08:18:12;;;;;;;7.63;3.88;;;;;;;12.12;63.75;99484.53;5035465;28;20045;-60
2021/05/27 08:20:37;;;;;;;7.32;3.38;;;;;;;11.95;65.15;99481.84;5052997;28;20037;-60
2021/05/27 08:23:03;;;;;;;6.28;3.30;;;;;;;11.77;65.05;99490.94;5053649;28;20024;-60
2021/05/27 08:25:29;;;;;;;6.60;3.40;;;;;;;11.84;66.33;99481.66;5053172;28;20044;-59
2021/05/27 08:27:55;;;;;;;5.78;3.50;;;;;;;11.92;66.70;99487.72;5053482;28;20482;-59
2021/05/27 08:30:20;;;;;;;8.85;3.38;;;;;;;11.82;66.45;99488.34;5053245;28;20056;-60
2021/05/27 08:32:46;;;;;;;4.70;3.00;;;;;;;12.17;66.86;99489.97;5053497;28;20021;-59
2021/05/27 08:35:12;;;;;;;5.35;3.25;;;;;;;12.75;65.17;99485.91;5052724;28;20455;-60
2021/05/27 08:37:38;;;;;;;5.70;3.30;;;;;;;13.47;62.60;99486.72;5035387;28;20336;-60
2021/05/27 08:40:03;;;;;;;5.60;3.47;;;;;;;14.57;59.60;99486.19;5052906;28;20040;-60
2021/05/27 08:42:29;;;;;;;6.18;3.30;;;;;;;14.56;58.45;99476.50;5053178;28;20581;-59
2021/05/27 08:44:55;;;;;;;5.25;3.03;;;;;;;15.33;56.06;99485.66;5018854;28;20032;-60
2021/05/27 08:47:21;;;;;;;5.80;2.78;;;;;;;15.85;54.19;99478.41;5052027;28;20043;-59
2021/05/27 08:49:48;;;;;;;4.68;3.10;;;;;;;16.28;52.58;99478.94;5052902;28;20025;-60
2021/05/27 08:52:14;;;;;;;4.90;2.88;;;;;;;15.93;52.02;99478.69;5052557;28;20037;-60
2021/05/27 08:54:39;;;;;;;4.50;2.83;;;;;;;16.57;51.01;99477.22;5052816;28;20031;-60
2021/05/27 08:57:05;;;;;;;5.65;3.13;;;;;;;18.21;46.88;99481.59;5052439;28;20041;-60
2021/05/27 08:59:31;;;;;;;6.22;3.10;;;;;;;16.54;50.41;99483.16;5052579;28;20418;-59
2021/05/27 09:02:07;;;;;;;6.03;2.80;;;;;;;17.65;47.62;99482.09;5052552;28;20033;-60
2021/05/27 09:04:34;;;;;;;5.45;3.17;;;;;;;16.24;52.58;99483.25;5052688;28;20029;-60
2021/05/27 09:07:00;;;;;;;6.45;2.95;;;;;;;16.79;50.93;99490.41;5052339;28;20116;-60
2021/05/27 09:09:36;;;;;;;5.80;2.97;;;;;;;15.86;53.30;99488.16;5052837;28;20076;-60
2021/05/27 09:12:02;;;;;;;3.97;2.63;;;;;;;15.30;54.97;99487.00;5019646;28;20499;-59
2021/05/27 09:14:40;;;;;;;4.68;2.88;;;;;;;15.53;53.97;99493.78;5052664;28;20079;-60
2021/05/27 09:17:06;;;;;;;4.78;3.08;;;;;;;16.37;52.47;99498.91;5051979;28;20045;-60
2021/05/27 09:19:31;;;;;;;4.43;3.00;;;;;;;15.31;55.44;99499.41;5052565;28;20025;-60
2021/05/27 09:21:57;;;;;;;9.55;2.90;;;;;;;15.63;52.89;99503.81;5052174;28;20041;-60
2021/05/27 09:24:45;;;;;;;4.13;2.53;;;;;;;15.87;52.22;99506.00;5052543;28;20035;-60
2021/05/27 09:27:10;;;;;;;6.50;2.83;;;;;;;15.55;52.65;99501.63;5052029;28;20461;-59
2021/05/27 09:29:45;;;;;;;7.38;3.28;;;;;;;15.64;52.40;99502.72;5052906;28;20075;-60
2021/05/27 09:32:11;;;;;;;7.03;3.30;;;;;;;15.57;53.61;99506.75;5035421;28;20032;-61
2021/05/27 09:34:47;;;;;;;5.85;3.00;;;;;;;15.21;54.57;99509.41;5052950;28;20021;-59
2021/05/27 09:37:19;;;;;;;5.07;2.67;;;;;;;14.69;54.22;99508.38;5052120;28;20116;-60
2021/05/27 09:39:46;;;;;;;3.30;2.40;;;;;;;14.68;53.65;99512.16;5052533;28;20153;-60
2021/05/27 09:42:12;;;;;;;5.45;3.20;;;;;;;14.46;54.80;99510.38;5052189;28;20033;-60
2021/05/27 09:44:37;;;;;;;4.88;2.72;;;;;;;14.69;55.56;99513.78;5052576;28;20040;-60
2021/05/27 09:47:04;;;;;;;5.20;2.63;;;;;;;14.46;57.64;99514.97;5052028;28;20037;-60
2021/05/27 09:49:31;;;;;;;4.55;2.90;;;;;;;14.28;58.96;99518.09;5052507;28;20071;-60
2021/05/27 09:51:57;;;;;;;4.47;2.80;;;;;;;14.62;56.93;99513.19;5051926;28;20136;-60
2021/05/27 09:54:23;;;;;;;5.07;2.95;;;;;;;14.43;55.79;99516.31;5052211;28;20025;-60
2021/05/27 09:56:49;;;;;;;3.90;2.85;;;;;;;14.30;56.23;99524.84;5051813;28;20044;-59
2021/05/27 09:59:15;;;;;;;6.30;2.70;;;;;;;14.28;56.42;99523.47;5055325;28;20029;-60
2021/05/27 10:02:06;;;;;;;5.05;2.80;;;;;;;14.29;56.33;99520.53;5055740;28;20126;-60
2021/05/27 10:04:32;;;;;;;6.93;2.88;;;;;;;14.62;56.25;99529.38;5024482;28;20032;-60
2021/05/27 10:06:57;;;;;;;4.07;2.55;;;;;;;14.22;57.40;99530.72;5055842;28;20029;-60
2021/05/27 10:09:23;;;;;;;4.25;2.75;;;;;;;14.03;55.58;99525.75;5056090;28;20378;-60
2021/05/27 10:11:48;;;;;;;6.60;2.65;;;;;;;13.93;55.96;99536.44;5038074;28;20034;-60
2021/05/27 10:14:14;;;;;;;5.35;2.63;;;;;;;14.36;55.97;99526.50;5038505;28;20482;-60
2021/05/27 10:16:39;;;;;;;6.30;2.83;;;;;;;14.29;56.16;99531.31;5037626;28;20053;-60
2021/05/27 10:19:05;;;;;;;3.17;2.13;;;;;;;14.38;55.33;99527.06;5056077;28;20486;-60
2021/05/27 10:21:30;;;;;;;4.18;2.53;;;;;;;14.50;54.34;99526.03;5055525;28;20033;-60
2021/05/27 10:23:56;;;;;;;5.50;2.70;;;;;;;14.83;54.51;99525.72;5055808;28;20025;-60
2021/05/27 10:26:21;;;;;;;4.10;2.63;;;;;;;14.78;54.36;99528.41;5021199;28;20045;-59
2021/05/27 10:28:49;;;;;;;6.60;2.70;;;;;;;14.73;54.50;99536.47;5055998;28;20108;-60
2021/05/27 10:31:15;;;;;;;4.18;2.40;;;;;;;14.55;54.91;99539.59;5037818;28;20524;-59
2021/05/27 10:33:41;;;;;;;4.78;2.75;;;;;;;14.36;55.79;99541.88;5037840;28;20017;-59
2021/05/27 10:36:07;;;;;;;5.28;2.63;;;;;;;13.88;57.51;99547.19;5037121;28;20060;-60
2021/05/27 10:38:39;;;;;;;4.15;2.20;;;;;;;13.71;58.61;99544.59;5055682;28;20037;-59
2021/05/27 10:41:08;;;;;;;5.78;2.78;;;;;;;13.79;58.95;99543.31;5055308;28;20068;-59
2021/05/27 10:43:33;;;;;;;5.18;2.92;;;;;;;13.69;60.00;99544.03;5055710;28;20433;-59
2021/05/27 10:45:59;;;;;;;3.90;2.63;;;;;;;13.54;59.56;99546.59;5055146;28;20033;-60
2021/05/27 10:48:26;;;;;;;4.95;2.58;;;;;;;13.41;60.78;99541.59;5055420;28;20465;-59
2021/05/27 10:51:11;;;;;;;5.60;2.70;;;;;;;13.47;61.89;99549.47;5055177;28;20045;-60
2021/05/27 10:53:40;;;;;;;5.97;2.50;;;;;;;13.18;61.72;99554.25;5055394;28;20028;-59
2021/05/27 10:56:06;;;;;;;3.63;2.70;;;;;;;13.00;62.48;99560.75;5055011;28;20045;-59
2021/05/27 10:58:52;;;;;;;4.93;2.80;;;;;;;13.32;62.61;99565.47;5055376;28;20032;-60
2021/05/27 11:01:30;;;;;;;5.30;2.90;;;;;;;13.49;62.54;99571.56;5055094;28;20040;-60
2021/05/27 11:03:59;;;;;;;5.25;2.80;;;;;;;13.15;63.83;99571.72;5055274;28;20063;-60
2021/05/27 11:06:44;;;;;;;9.30;2.80;;;;;;;12.88;64.47;99570.81;5036493;28;20033;-60
2021/05/27 11:09:30;;;;;;;4.63;2.90;;;;;;;12.98;64.61;99581.72;5054328;28;20274;-59
2021/05/27 11:11:59;;;;;;;4.97;2.75;;;;;;;12.99;63.93;99579.84;5036668;28;20057;-59
2021/05/27 11:14:28;;;;;;;9.55;2.78;;;;;;;13.03;64.91;99584.47;5055000;28;20075;-60
2021/05/27 11:22:36;;;;;;;4.88;2.72;;;;;;;13.28;65.57;99580.47;5054469;28;20099;-60
2021/05/27 11:27:33;;;;;;;5.97;2.83;;;;;;;14.01;61.91;99589.84;5054874;28;20025;-60
2021/05/27 11:30:18;;;;;;;3.80;2.70;;;;;;;14.65;60.95;99588.19;5054616;28;20502;-59
2021/05/27 11:32:44;;;;;;;9.52;3.40;;;;;;;14.72;59.47;99593.38;5054349;28;20155;-60
2021/05/27 11:35:09;;;;;;;5.63;2.70;;;;;;;14.38;58.50;99594.47;5054160;28;20036;-60
2021/05/27 11:37:35;;;;;;;5.32;2.70;;;;;;;14.41;58.13;99593.16;5054623;28;20053;-60
2021/05/27 11:40:01;;;;;;;4.68;2.67;;;;;;;14.83;58.10;99590.47;5054228;28;20021;-59
2021/05/27 11:42:26;;;;;;;4.78;2.53;;;;;;;14.85;57.88;99588.34;5036532;28;20112;-61
2021/05/27 11:45:01;;;;;;;3.85;2.67;;;;;;;14.72;56.90;99588.78;5054411;28;20029;-60
2021/05/27 11:47:27;;;;;;;5.60;2.75;;;;;;;14.56;57.17;99597.88;5053958;28;20029;-60
2021/05/27 11:50:13;;;;;;;4.15;2.45;;;;;;;14.83;57.23;99589.69;5054271;28;20033;-59
2021/05/27 11:52:39;;;;;;;6.50;2.80;;;;;;;15.26;56.37;99590.41;5053967;28;20044;-60